sensor_id;sensor_type;location;lat;lon;timestamp;P1;durP1;ratioP1;P2;durP2;ratioP2
21095;SDS011;10706;49.036;12.112;2023-05-07T00:00:37;5.22;;;2.90;;
21095;SDS011;10706;49.036;12.112;2023-05-07T00:03:03;7.05;;;3.33;;
21095;SDS011;10706;49.036;12.112;2023-05-07T00:05:28;8.80;;;3.53;;
21095;SDS011;10706;49.036;12.112;2023-05-07T00:07:54;10.20;;;3.38;;
21095;SDS011;10706;49.036;12.112;2023-05-07T00:10:20;8.90;;;3.55;;
21095;SDS011;10706;49.036;12.112;2023-05-07T00:12:46;9.50;;;3.80;;
21095;SDS011;10706;49.036;12.112;2023-05-07T00:15:12;9.38;;;3.22;;
21095;SDS011;10706;49.036;12.112;2023-05-07T00:17:38;9.75;;;3.83;;
21095;SDS011;10706;49.036;12.112;2023-05-07T00:20:04;8.57;;;3.95;;
21095;SDS011;10706;49.036;12.112;2023-05-07T00:22:30;8.45;;;3.22;;
21095;SDS011;10706;49.036;12.112;2023-05-07T00:24:57;8.10;;;3.60;;
21095;SDS011;10706;49.036;12.112;2023-05-07T00:27:24;6.60;;;3.15;;
21095;SDS011;10706;49.036;12.112;2023-05-07T00:29:50;7.43;;;3.55;;
21095;SDS011;10706;49.036;12.112;2023-05-07T00:32:16;10.68;;;3.47;;
21095;SDS011;10706;49.036;12.112;2023-05-07T00:34:42;9.38;;;3.90;;
21095;SDS011;10706;49.036;12.112;2023-05-07T00:37:08;9.20;;;3.22;;
21095;SDS011;10706;49.036;12.112;2023-05-07T00:39:34;9.98;;;3.90;;
21095;SDS011;10706;49.036;12.112;2023-05-07T00:42:01;7.40;;;3.22;;
21095;SDS011;10706;49.036;12.112;2023-05-07T00:44:27;8.63;;;3.17;;
21095;SDS011;10706;49.036;12.112;2023-05-07T00:46:54;6.60;;;3.17;;
21095;SDS011;10706;49.036;12.112;2023-05-07T00:49:22;8.13;;;3.30;;
21095;SDS011;10706;49.036;12.112;2023-05-07T00:51:59;6.45;;;2.95;;
21095;SDS011;10706;49.036;12.112;2023-05-07T00:54:25;8.20;;;3.45;;
21095;SDS011;10706;49.036;12.112;2023-05-07T00:56:51;6.78;;;3.35;;
21095;SDS011;10706;49.036;12.112;2023-05-07T00:59:17;9.07;;;3.63;;
21095;SDS011;10706;49.036;12.112;2023-05-07T01:01:43;8.73;;;3.58;;
21095;SDS011;10706;49.036;12.112;2023-05-07T01:04:10;8.32;;;3.92;;
21095;SDS011;10706;49.036;12.112;2023-05-07T01:06:35;9.73;;;3.95;;
21095;SDS011;10706;49.036;12.112;2023-05-07T01:09:02;7.85;;;3.25;;
21095;SDS011;10706;49.036;12.112;2023-05-07T01:11:29;10.55;;;3.88;;
21095;SDS011;10706;49.036;12.112;2023-05-07T01:13:55;10.35;;;3.60;;
21095;SDS011;10706;49.036;12.112;2023-05-07T01:16:24;8.00;;;3.70;;
21095;SDS011;10706;49.036;12.112;2023-05-07T01:18:50;8.70;;;3.78;;
21095;SDS011;10706;49.036;12.112;2023-05-07T01:21:16;7.88;;;3.55;;
21095;SDS011;10706;49.036;12.112;2023-05-07T01:23:43;10.63;;;4.32;;
21095;SDS011;10706;49.036;12.112;2023-05-07T01:26:10;8.77;;;3.58;;
21095;SDS011;10706;49.036;12.112;2023-05-07T01:28:36;10.02;;;3.72;;
21095;SDS011;10706;49.036;12.112;2023-05-07T01:31:02;11.27;;;4.07;;
21095;SDS011;10706;49.036;12.112;2023-05-07T01:33:31;8.95;;;4.13;;
21095;SDS011;10706;49.036;12.112;2023-05-07T01:36:00;9.10;;;3.97;;
21095;SDS011;10706;49.036;12.112;2023-05-07T01:38:28;7.72;;;3.95;;
21095;SDS011;10706;49.036;12.112;2023-05-07T01:40:55;11.98;;;4.25;;
21095;SDS011;10706;49.036;12.112;2023-05-07T01:43:21;12.73;;;4.07;;
21095;SDS011;10706;49.036;12.112;2023-05-07T01:45:46;10.70;;;4.10;;
21095;SDS011;10706;49.036;12.112;2023-05-07T01:48:14;11.52;;;5.00;;
21095;SDS011;10706;49.036;12.112;2023-05-07T01:50:40;10.07;;;4.15;;
21095;SDS011;10706;49.036;12.112;2023-05-07T01:53:08;10.18;;;5.00;;
21095;SDS011;10706;49.036;12.112;2023-05-07T01:55:33;12.05;;;4.60;;
21095;SDS011;10706;49.036;12.112;2023-05-07T01:58:01;13.13;;;5.25;;
21095;SDS011;10706;49.036;12.112;2023-05-07T02:00:27;15.85;;;5.20;;
21095;SDS011;10706;49.036;12.112;2023-05-07T02:02:53;14.20;;;5.13;;
21095;SDS011;10706;49.036;12.112;2023-05-07T02:05:19;11.63;;;5.25;;
21095;SDS011;10706;49.036;12.112;2023-05-07T02:07:45;14.77;;;5.47;;
21095;SDS011;10706;49.036;12.112;2023-05-07T02:10:11;13.73;;;5.22;;
21095;SDS011;10706;49.036;12.112;2023-05-07T02:12:37;17.48;;;5.30;;
21095;SDS011;10706;49.036;12.112;2023-05-07T02:15:03;13.50;;;5.70;;
21095;SDS011;10706;49.036;12.112;2023-05-07T02:17:29;12.13;;;5.18;;
21095;SDS011;10706;49.036;12.112;2023-05-07T02:19:56;12.88;;;5.47;;
21095;SDS011;10706;49.036;12.112;2023-05-07T02:22:22;10.23;;;5.05;;
21095;SDS011;10706;49.036;12.112;2023-05-07T02:24:48;16.52;;;5.30;;
21095;SDS011;10706;49.036;12.112;2023-05-07T02:27:14;13.43;;;5.55;;
21095;SDS011;10706;49.036;12.112;2023-05-07T02:29:40;12.88;;;5.57;;
21095;SDS011;10706;49.036;12.112;2023-05-07T02:32:05;10.90;;;4.97;;
21095;SDS011;10706;49.036;12.112;2023-05-07T02:34:31;14.53;;;5.27;;
21095;SDS011;10706;49.036;12.112;2023-05-07T02:36:57;10.23;;;4.72;;
21095;SDS011;10706;49.036;12.112;2023-05-07T02:39:22;13.03;;;5.63;;
21095;SDS011;10706;49.036;12.112;2023-05-07T02:41:48;11.53;;;6.00;;
21095;SDS011;10706;49.036;12.112;2023-05-07T02:44:14;13.03;;;5.90;;
21095;SDS011;10706;49.036;12.112;2023-05-07T02:46:40;14.03;;;6.13;;
21095;SDS011;10706;49.036;12.112;2023-05-07T02:49:06;12.95;;;5.68;;
21095;SDS011;10706;49.036;12.112;2023-05-07T02:51:31;12.07;;;5.85;;
21095;SDS011;10706;49.036;12.112;2023-05-07T02:53:57;13.83;;;6.63;;
21095;SDS011;10706;49.036;12.112;2023-05-07T02:56:25;15.60;;;6.83;;
21095;SDS011;10706;49.036;12.112;2023-05-07T02:58:51;14.13;;;6.45;;
21095;SDS011;10706;49.036;12.112;2023-05-07T03:01:17;15.10;;;6.47;;
21095;SDS011;10706;49.036;12.112;2023-05-07T03:03:44;15.23;;;6.73;;
21095;SDS011;10706;49.036;12.112;2023-05-07T03:06:09;14.07;;;6.77;;
21095;SDS011;10706;49.036;12.112;2023-05-07T03:08:35;15.60;;;6.87;;
21095;SDS011;10706;49.036;12.112;2023-05-07T03:11:01;14.33;;;6.00;;
21095;SDS011;10706;49.036;12.112;2023-05-07T03:13:27;16.63;;;6.55;;
21095;SDS011;10706;49.036;12.112;2023-05-07T03:15:53;13.57;;;6.57;;
21095;SDS011;10706;49.036;12.112;2023-05-07T03:18:19;18.93;;;7.07;;
21095;SDS011;10706;49.036;12.112;2023-05-07T03:20:44;14.57;;;7.23;;
21095;SDS011;10706;49.036;12.112;2023-05-07T03:23:11;15.80;;;7.23;;
21095;SDS011;10706;49.036;12.112;2023-05-07T03:25:36;15.10;;;7.30;;
21095;SDS011;10706;49.036;12.112;2023-05-07T03:28:02;16.60;;;7.20;;
21095;SDS011;10706;49.036;12.112;2023-05-07T03:30:28;15.73;;;6.70;;
21095;SDS011;10706;49.036;12.112;2023-05-07T03:32:54;14.37;;;6.90;;
21095;SDS011;10706;49.036;12.112;2023-05-07T03:35:20;18.47;;;7.13;;
21095;SDS011;10706;49.036;12.112;2023-05-07T03:37:45;16.57;;;7.90;;
21095;SDS011;10706;49.036;12.112;2023-05-07T03:40:11;14.87;;;7.20;;
21095;SDS011;10706;49.036;12.112;2023-05-07T03:42:37;17.63;;;7.53;;
21095;SDS011;10706;49.036;12.112;2023-05-07T03:45:03;15.27;;;7.23;;
21095;SDS011;10706;49.036;12.112;2023-05-07T03:47:30;17.33;;;7.77;;
21095;SDS011;10706;49.036;12.112;2023-05-07T03:49:55;14.93;;;7.33;;
21095;SDS011;10706;49.036;12.112;2023-05-07T03:52:21;17.40;;;8.13;;
21095;SDS011;10706;49.036;12.112;2023-05-07T03:54:50;14.70;;;7.05;;
21095;SDS011;10706;49.036;12.112;2023-05-07T03:57:17;13.98;;;6.65;;
21095;SDS011;10706;49.036;12.112;2023-05-07T03:59:43;14.10;;;6.50;;
21095;SDS011;10706;49.036;12.112;2023-05-07T04:02:09;16.65;;;6.95;;
21095;SDS011;10706;49.036;12.112;2023-05-07T04:04:35;14.68;;;6.68;;
21095;SDS011;10706;49.036;12.112;2023-05-07T04:07:01;14.27;;;6.27;;
21095;SDS011;10706;49.036;12.112;2023-05-07T04:09:26;16.53;;;7.20;;
21095;SDS011;10706;49.036;12.112;2023-05-07T04:11:52;15.98;;;6.75;;
21095;SDS011;10706;49.036;12.112;2023-05-07T04:14:18;14.27;;;7.03;;
21095;SDS011;10706;49.036;12.112;2023-05-07T04:16:44;13.43;;;6.90;;
21095;SDS011;10706;49.036;12.112;2023-05-07T04:19:10;16.05;;;6.75;;
21095;SDS011;10706;49.036;12.112;2023-05-07T04:21:35;14.43;;;6.25;;
21095;SDS011;10706;49.036;12.112;2023-05-07T04:24:02;15.20;;;7.30;;
21095;SDS011;10706;49.036;12.112;2023-05-07T04:26:29;16.58;;;6.93;;
21095;SDS011;10706;49.036;12.112;2023-05-07T04:28:55;13.40;;;6.53;;
21095;SDS011;10706;49.036;12.112;2023-05-07T04:31:21;12.18;;;6.53;;
21095;SDS011;10706;49.036;12.112;2023-05-07T04:33:47;16.23;;;7.13;;
21095;SDS011;10706;49.036;12.112;2023-05-07T04:36:13;18.00;;;7.47;;
21095;SDS011;10706;49.036;12.112;2023-05-07T04:38:39;15.45;;;7.03;;
21095;SDS011;10706;49.036;12.112;2023-05-07T04:41:05;15.60;;;7.32;;
21095;SDS011;10706;49.036;12.112;2023-05-07T04:43:31;15.15;;;7.25;;
21095;SDS011;10706;49.036;12.112;2023-05-07T04:45:57;14.52;;;7.35;;
21095;SDS011;10706;49.036;12.112;2023-05-07T04:48:23;14.70;;;7.25;;
21095;SDS011;10706;49.036;12.112;2023-05-07T04:50:49;16.52;;;7.15;;
21095;SDS011;10706;49.036;12.112;2023-05-07T04:53:16;17.30;;;7.13;;
21095;SDS011;10706;49.036;12.112;2023-05-07T04:55:42;16.23;;;7.45;;
21095;SDS011;10706;49.036;12.112;2023-05-07T04:58:09;14.38;;;6.97;;
21095;SDS011;10706;49.036;12.112;2023-05-07T05:00:36;16.38;;;7.85;;
21095;SDS011;10706;49.036;12.112;2023-05-07T05:03:02;15.18;;;6.97;;
21095;SDS011;10706;49.036;12.112;2023-05-07T05:05:28;15.85;;;7.03;;
21095;SDS011;10706;49.036;12.112;2023-05-07T05:07:53;15.57;;;7.20;;
21095;SDS011;10706;49.036;12.112;2023-05-07T05:10:19;12.10;;;6.25;;
21095;SDS011;10706;49.036;12.112;2023-05-07T05:12:46;15.65;;;7.07;;
21095;SDS011;10706;49.036;12.112;2023-05-07T05:15:12;15.82;;;7.00;;
21095;SDS011;10706;49.036;12.112;2023-05-07T05:17:38;17.65;;;6.68;;
21095;SDS011;10706;49.036;12.112;2023-05-07T05:20:05;14.50;;;6.63;;
21095;SDS011;10706;49.036;12.112;2023-05-07T05:22:31;13.70;;;6.72;;
21095;SDS011;10706;49.036;12.112;2023-05-07T05:24:57;14.15;;;6.55;;
21095;SDS011;10706;49.036;12.112;2023-05-07T05:27:23;12.93;;;6.15;;
21095;SDS011;10706;49.036;12.112;2023-05-07T05:29:49;16.42;;;6.70;;
21095;SDS011;10706;49.036;12.112;2023-05-07T05:32:15;14.18;;;5.95;;
21095;SDS011;10706;49.036;12.112;2023-05-07T05:34:41;16.45;;;6.97;;
21095;SDS011;10706;49.036;12.112;2023-05-07T05:37:06;14.65;;;6.85;;
21095;SDS011;10706;49.036;12.112;2023-05-07T05:39:32;15.25;;;6.78;;
21095;SDS011;10706;49.036;12.112;2023-05-07T05:41:58;14.57;;;6.70;;
21095;SDS011;10706;49.036;12.112;2023-05-07T05:44:24;13.73;;;7.05;;
21095;SDS011;10706;49.036;12.112;2023-05-07T05:46:50;14.07;;;6.57;;
21095;SDS011;10706;49.036;12.112;2023-05-07T05:49:16;15.52;;;6.63;;
21095;SDS011;10706;49.036;12.112;2023-05-07T05:51:42;13.15;;;6.38;;
21095;SDS011;10706;49.036;12.112;2023-05-07T05:54:08;14.25;;;6.13;;
21095;SDS011;10706;49.036;12.112;2023-05-07T05:56:34;15.48;;;6.68;;
21095;SDS011;10706;49.036;12.112;2023-05-07T05:59:00;15.82;;;6.78;;
21095;SDS011;10706;49.036;12.112;2023-05-07T06:01:25;13.88;;;6.57;;
21095;SDS011;10706;49.036;12.112;2023-05-07T06:03:51;13.60;;;6.03;;
21095;SDS011;10706;49.036;12.112;2023-05-07T06:06:17;13.05;;;6.47;;
21095;SDS011;10706;49.036;12.112;2023-05-07T06:08:43;17.83;;;6.20;;
21095;SDS011;10706;49.036;12.112;2023-05-07T06:11:09;11.18;;;5.32;;
21095;SDS011;10706;49.036;12.112;2023-05-07T06:13:34;17.20;;;6.53;;
21095;SDS011;10706;49.036;12.112;2023-05-07T06:16:00;13.77;;;6.25;;
21095;SDS011;10706;49.036;12.112;2023-05-07T06:18:26;14.10;;;6.32;;
21095;SDS011;10706;49.036;12.112;2023-05-07T06:20:52;12.25;;;5.65;;
21095;SDS011;10706;49.036;12.112;2023-05-07T06:23:18;13.85;;;6.38;;
21095;SDS011;10706;49.036;12.112;2023-05-07T06:25:50;12.55;;;5.60;;
21095;SDS011;10706;49.036;12.112;2023-05-07T06:28:16;14.68;;;6.47;;
21095;SDS011;10706;49.036;12.112;2023-05-07T06:30:42;12.73;;;5.88;;
21095;SDS011;10706;49.036;12.112;2023-05-07T06:33:08;12.25;;;5.47;;
21095;SDS011;10706;49.036;12.112;2023-05-07T06:35:33;11.88;;;5.93;;
21095;SDS011;10706;49.036;12.112;2023-05-07T06:37:59;13.60;;;6.13;;
21095;SDS011;10706;49.036;12.112;2023-05-07T06:40:26;13.90;;;6.28;;
21095;SDS011;10706;49.036;12.112;2023-05-07T06:42:52;14.80;;;5.78;;
21095;SDS011;10706;49.036;12.112;2023-05-07T06:45:18;14.57;;;6.00;;
21095;SDS011;10706;49.036;12.112;2023-05-07T06:47:45;14.00;;;6.10;;
21095;SDS011;10706;49.036;12.112;2023-05-07T06:50:10;13.07;;;5.38;;
21095;SDS011;10706;49.036;12.112;2023-05-07T06:52:36;11.00;;;4.97;;
21095;SDS011;10706;49.036;12.112;2023-05-07T06:55:02;13.82;;;5.40;;
21095;SDS011;10706;49.036;12.112;2023-05-07T06:57:29;13.32;;;5.35;;
21095;SDS011;10706;49.036;12.112;2023-05-07T06:59:54;13.15;;;5.38;;
21095;SDS011;10706;49.036;12.112;2023-05-07T07:02:20;13.10;;;5.22;;
21095;SDS011;10706;49.036;12.112;2023-05-07T07:04:46;12.68;;;5.22;;
21095;SDS011;10706;49.036;12.112;2023-05-07T07:07:12;12.57;;;5.15;;
21095;SDS011;10706;49.036;12.112;2023-05-07T07:09:38;12.27;;;4.90;;
21095;SDS011;10706;49.036;12.112;2023-05-07T07:12:03;12.57;;;5.00;;
21095;SDS011;10706;49.036;12.112;2023-05-07T07:14:29;11.75;;;4.97;;
21095;SDS011;10706;49.036;12.112;2023-05-07T07:16:55;11.65;;;5.20;;
21095;SDS011;10706;49.036;12.112;2023-05-07T07:19:21;13.32;;;5.43;;
21095;SDS011;10706;49.036;12.112;2023-05-07T07:21:47;13.77;;;5.22;;
21095;SDS011;10706;49.036;12.112;2023-05-07T07:24:13;13.95;;;5.35;;
21095;SDS011;10706;49.036;12.112;2023-05-07T07:26:44;10.88;;;4.95;;
21095;SDS011;10706;49.036;12.112;2023-05-07T07:29:09;11.38;;;4.80;;
21095;SDS011;10706;49.036;12.112;2023-05-07T07:31:35;12.45;;;4.85;;
21095;SDS011;10706;49.036;12.112;2023-05-07T07:34:01;15.15;;;5.20;;
21095;SDS011;10706;49.036;12.112;2023-05-07T07:36:27;11.40;;;5.57;;
21095;SDS011;10706;49.036;12.112;2023-05-07T07:38:53;11.65;;;4.88;;
21095;SDS011;10706;49.036;12.112;2023-05-07T07:41:19;13.50;;;5.00;;
21095;SDS011;10706;49.036;12.112;2023-05-07T07:43:44;11.82;;;4.80;;
21095;SDS011;10706;49.036;12.112;2023-05-07T07:46:11;12.02;;;5.18;;
21095;SDS011;10706;49.036;12.112;2023-05-07T07:48:37;12.82;;;5.25;;
21095;SDS011;10706;49.036;12.112;2023-05-07T07:51:03;11.43;;;5.05;;
21095;SDS011;10706;49.036;12.112;2023-05-07T07:53:29;11.23;;;5.18;;
21095;SDS011;10706;49.036;12.112;2023-05-07T07:55:55;12.20;;;5.22;;
21095;SDS011;10706;49.036;12.112;2023-05-07T07:58:21;11.88;;;5.72;;
21095;SDS011;10706;49.036;12.112;2023-05-07T08:00:47;11.52;;;5.28;;
21095;SDS011;10706;49.036;12.112;2023-05-07T08:03:13;10.60;;;4.88;;
21095;SDS011;10706;49.036;12.112;2023-05-07T08:05:41;14.38;;;5.28;;
21095;SDS011;10706;49.036;12.112;2023-05-07T08:08:07;12.50;;;4.30;;
21095;SDS011;10706;49.036;12.112;2023-05-07T08:10:33;10.95;;;5.05;;
21095;SDS011;10706;49.036;12.112;2023-05-07T08:13:00;12.52;;;4.50;;
21095;SDS011;10706;49.036;12.112;2023-05-07T08:15:26;11.65;;;5.03;;
21095;SDS011;10706;49.036;12.112;2023-05-07T08:17:52;10.77;;;4.90;;
21095;SDS011;10706;49.036;12.112;2023-05-07T08:20:18;12.18;;;5.28;;
21095;SDS011;10706;49.036;12.112;2023-05-07T08:22:44;11.73;;;4.95;;
21095;SDS011;10706;49.036;12.112;2023-05-07T08:25:10;12.50;;;5.28;;
21095;SDS011;10706;49.036;12.112;2023-05-07T08:27:36;17.08;;;5.13;;
21095;SDS011;10706;49.036;12.112;2023-05-07T08:30:02;13.25;;;5.63;;
21095;SDS011;10706;49.036;12.112;2023-05-07T08:32:29;12.02;;;5.85;;
21095;SDS011;10706;49.036;12.112;2023-05-07T08:34:54;12.27;;;5.28;;
21095;SDS011;10706;49.036;12.112;2023-05-07T08:37:20;12.38;;;5.40;;
21095;SDS011;10706;49.036;12.112;2023-05-07T08:39:46;11.88;;;5.40;;
21095;SDS011;10706;49.036;12.112;2023-05-07T08:42:12;12.13;;;4.82;;
21095;SDS011;10706;49.036;12.112;2023-05-07T08:44:39;12.77;;;5.50;;
21095;SDS011;10706;49.036;12.112;2023-05-07T08:47:08;14.98;;;5.60;;
21095;SDS011;10706;49.036;12.112;2023-05-07T08:49:35;11.80;;;5.03;;
21095;SDS011;10706;49.036;12.112;2023-05-07T08:52:01;12.80;;;5.57;;
21095;SDS011;10706;49.036;12.112;2023-05-07T08:54:27;14.63;;;5.50;;
21095;SDS011;10706;49.036;12.112;2023-05-07T08:56:54;12.20;;;4.90;;
21095;SDS011;10706;49.036;12.112;2023-05-07T08:59:20;12.57;;;4.53;;
21095;SDS011;10706;49.036;12.112;2023-05-07T09:01:46;12.85;;;4.60;;
21095;SDS011;10706;49.036;12.112;2023-05-07T09:04:12;13.07;;;4.88;;
21095;SDS011;10706;49.036;12.112;2023-05-07T09:06:38;12.85;;;5.60;;
21095;SDS011;10706;49.036;12.112;2023-05-07T09:09:06;11.18;;;4.97;;
21095;SDS011;10706;49.036;12.112;2023-05-07T09:11:33;9.65;;;4.70;;
21095;SDS011;10706;49.036;12.112;2023-05-07T09:13:59;10.57;;;4.85;;
21095;SDS011;10706;49.036;12.112;2023-05-07T09:16:27;10.30;;;4.80;;
21095;SDS011;10706;49.036;12.112;2023-05-07T09:18:58;13.40;;;4.40;;
21095;SDS011;10706;49.036;12.112;2023-05-07T09:21:27;10.55;;;4.53;;
21095;SDS011;10706;49.036;12.112;2023-05-07T09:23:55;10.20;;;4.70;;
21095;SDS011;10706;49.036;12.112;2023-05-07T09:26:21;13.18;;;5.18;;
21095;SDS011;10706;49.036;12.112;2023-05-07T09:28:48;11.27;;;4.85;;
21095;SDS011;10706;49.036;12.112;2023-05-07T09:31:14;8.52;;;3.90;;
21095;SDS011;10706;49.036;12.112;2023-05-07T09:33:40;8.73;;;3.97;;
21095;SDS011;10706;49.036;12.112;2023-05-07T09:36:09;8.70;;;3.97;;
21095;SDS011;10706;49.036;12.112;2023-05-07T09:38:35;10.93;;;3.95;;
21095;SDS011;10706;49.036;12.112;2023-05-07T09:43:36;10.43;;;4.50;;
21095;SDS011;10706;49.036;12.112;2023-05-07T09:46:09;11.63;;;4.72;;
21095;SDS011;10706;49.036;12.112;2023-05-07T09:48:39;11.63;;;4.60;;
21095;SDS011;10706;49.036;12.112;2023-05-07T09:51:21;10.60;;;4.93;;
21095;SDS011;10706;49.036;12.112;2023-05-07T09:53:58;12.02;;;4.90;;
21095;SDS011;10706;49.036;12.112;2023-05-07T09:56:29;12.43;;;4.50;;
21095;SDS011;10706;49.036;12.112;2023-05-07T09:58:56;11.55;;;5.18;;
21095;SDS011;10706;49.036;12.112;2023-05-07T10:01:25;10.80;;;4.60;;
21095;SDS011;10706;49.036;12.112;2023-05-07T10:03:53;10.32;;;4.75;;
21095;SDS011;10706;49.036;12.112;2023-05-07T10:06:20;11.40;;;5.05;;
21095;SDS011;10706;49.036;12.112;2023-05-07T10:08:47;11.45;;;5.13;;
21095;SDS011;10706;49.036;12.112;2023-05-07T10:11:14;12.38;;;5.40;;
21095;SDS011;10706;49.036;12.112;2023-05-07T10:13:41;10.77;;;4.55;;
21095;SDS011;10706;49.036;12.112;2023-05-07T10:16:08;10.77;;;4.43;;
21095;SDS011;10706;49.036;12.112;2023-05-07T10:18:34;11.07;;;5.10;;
21095;SDS011;10706;49.036;12.112;2023-05-07T10:23:59;10.30;;;4.85;;
21095;SDS011;10706;49.036;12.112;2023-05-07T10:26:43;10.30;;;4.50;;
21095;SDS011;10706;49.036;12.112;2023-05-07T10:29:36;10.13;;;4.22;;
21095;SDS011;10706;49.036;12.112;2023-05-07T10:32:14;10.90;;;4.82;;
21095;SDS011;10706;49.036;12.112;2023-05-07T10:35:10;10.30;;;4.80;;
21095;SDS011;10706;49.036;12.112;2023-05-07T10:37:46;11.85;;;5.18;;
21095;SDS011;10706;49.036;12.112;2023-05-07T10:40:13;9.95;;;4.50;;
21095;SDS011;10706;49.036;12.112;2023-05-07T10:42:52;10.90;;;5.30;;
21095;SDS011;10706;49.036;12.112;2023-05-07T10:45:24;10.13;;;4.07;;
21095;SDS011;10706;49.036;12.112;2023-05-07T10:48:07;11.52;;;4.82;;
21095;SDS011;10706;49.036;12.112;2023-05-07T10:50:43;11.98;;;4.45;;
21095;SDS011;10706;49.036;12.112;2023-05-07T10:55:43;10.73;;;4.63;;
21095;SDS011;10706;49.036;12.112;2023-05-07T11:00:47;9.20;;;4.25;;
21095;SDS011;10706;49.036;12.112;2023-05-07T11:03:13;9.48;;;4.68;;
21095;SDS011;10706;49.036;12.112;2023-05-07T11:05:40;14.50;;;4.90;;
21095;SDS011;10706;49.036;12.112;2023-05-07T11:08:07;9.80;;;3.90;;
21095;SDS011;10706;49.036;12.112;2023-05-07T11:10:47;11.80;;;4.43;;
21095;SDS011;10706;49.036;12.112;2023-05-07T11:13:18;10.30;;;4.63;;
21095;SDS011;10706;49.036;12.112;2023-05-07T11:18:52;11.50;;;4.65;;
21095;SDS011;10706;49.036;12.112;2023-05-07T11:24:08;9.80;;;4.30;;
21095;SDS011;10706;49.036;12.112;2023-05-07T11:26:42;8.43;;;4.13;;
21095;SDS011;10706;49.036;12.112;2023-05-07T11:29:15;9.70;;;4.20;;
21095;SDS011;10706;49.036;12.112;2023-05-07T11:31:43;10.13;;;4.32;;
21095;SDS011;10706;49.036;12.112;2023-05-07T11:34:13;10.18;;;4.45;;
21095;SDS011;10706;49.036;12.112;2023-05-07T11:36:41;10.80;;;4.22;;
21095;SDS011;10706;49.036;12.112;2023-05-07T11:39:32;7.93;;;4.00;;
21095;SDS011;10706;49.036;12.112;2023-05-07T11:42:01;12.90;;;4.53;;
21095;SDS011;10706;49.036;12.112;2023-05-07T11:44:43;12.82;;;4.85;;
21095;SDS011;10706;49.036;12.112;2023-05-07T11:47:11;11.02;;;4.55;;
21095;SDS011;10706;49.036;12.112;2023-05-07T11:49:42;9.68;;;3.80;;
21095;SDS011;10706;49.036;12.112;2023-05-07T11:52:07;11.65;;;3.92;;
21095;SDS011;10706;49.036;12.112;2023-05-07T11:54:37;10.95;;;3.92;;
21095;SDS011;10706;49.036;12.112;2023-05-07T11:57:02;8.27;;;3.47;;
21095;SDS011;10706;49.036;12.112;2023-05-07T11:59:28;8.48;;;3.20;;
21095;SDS011;10706;49.036;12.112;2023-05-07T12:01:57;9.13;;;3.10;;
21095;SDS011;10706;49.036;12.112;2023-05-07T12:04:24;7.78;;;3.20;;
21095;SDS011;10706;49.036;12.112;2023-05-07T12:06:53;11.10;;;4.45;;
21095;SDS011;10706;49.036;12.112;2023-05-07T12:09:20;15.32;;;6.47;;
21095;SDS011;10706;49.036;12.112;2023-05-07T12:11:46;9.73;;;3.10;;
21095;SDS011;10706;49.036;12.112;2023-05-07T12:14:12;5.05;;;2.53;;
21095;SDS011;10706;49.036;12.112;2023-05-07T12:16:40;6.72;;;2.72;;
21095;SDS011;10706;49.036;12.112;2023-05-07T12:19:07;7.20;;;3.47;;
21095;SDS011;10706;49.036;12.112;2023-05-07T12:21:37;6.85;;;2.72;;
21095;SDS011;10706;49.036;12.112;2023-05-07T12:24:04;5.50;;;2.58;;
21095;SDS011;10706;49.036;12.112;2023-05-07T12:26:30;7.07;;;2.78;;
21095;SDS011;10706;49.036;12.112;2023-05-07T12:28:57;6.45;;;2.95;;
21095;SDS011;10706;49.036;12.112;2023-05-07T12:31:25;7.35;;;3.05;;
21095;SDS011;10706;49.036;12.112;2023-05-07T12:33:51;8.48;;;2.50;;
21095;SDS011;10706;49.036;12.112;2023-05-07T12:36:17;13.00;;;2.80;;
21095;SDS011;10706;49.036;12.112;2023-05-07T12:38:43;6.82;;;2.90;;
21095;SDS011;10706;49.036;12.112;2023-05-07T12:41:09;8.13;;;2.70;;
21095;SDS011;10706;49.036;12.112;2023-05-07T12:43:37;7.55;;;2.38;;
21095;SDS011;10706;49.036;12.112;2023-05-07T12:46:04;7.55;;;2.42;;
21095;SDS011;10706;49.036;12.112;2023-05-07T12:48:32;8.43;;;2.90;;
21095;SDS011;10706;49.036;12.112;2023-05-07T12:50:59;5.80;;;2.40;;
21095;SDS011;10706;49.036;12.112;2023-05-07T12:53:27;5.43;;;2.60;;
21095;SDS011;10706;49.036;12.112;2023-05-07T12:55:55;5.57;;;2.45;;
21095;SDS011;10706;49.036;12.112;2023-05-07T12:58:25;9.23;;;2.85;;
21095;SDS011;10706;49.036;12.112;2023-05-07T13:00:58;7.82;;;2.50;;
21095;SDS011;10706;49.036;12.112;2023-05-07T13:03:28;5.75;;;2.55;;
21095;SDS011;10706;49.036;12.112;2023-05-07T13:05:59;5.75;;;2.17;;
21095;SDS011;10706;49.036;12.112;2023-05-07T13:08:37;4.50;;;2.63;;
21095;SDS011;10706;49.036;12.112;2023-05-07T13:11:09;5.65;;;2.33;;
21095;SDS011;10706;49.036;12.112;2023-05-07T13:13:38;6.20;;;2.17;;
21095;SDS011;10706;49.036;12.112;2023-05-07T13:16:06;3.70;;;2.28;;
21095;SDS011;10706;49.036;12.112;2023-05-07T13:18:36;6.03;;;2.30;;
21095;SDS011;10706;49.036;12.112;2023-05-07T13:21:03;7.72;;;2.70;;
21095;SDS011;10706;49.036;12.112;2023-05-07T13:23:29;3.80;;;2.10;;
21095;SDS011;10706;49.036;12.112;2023-05-07T13:25:55;5.82;;;2.38;;
21095;SDS011;10706;49.036;12.112;2023-05-07T13:28:23;4.72;;;2.53;;
21095;SDS011;10706;49.036;12.112;2023-05-07T13:30:50;5.32;;;2.25;;
21095;SDS011;10706;49.036;12.112;2023-05-07T13:33:16;4.57;;;2.22;;
21095;SDS011;10706;49.036;12.112;2023-05-07T13:35:42;5.97;;;2.85;;
21095;SDS011;10706;49.036;12.112;2023-05-07T13:38:09;4.32;;;2.17;;
21095;SDS011;10706;49.036;12.112;2023-05-07T13:40:35;5.55;;;2.38;;
21095;SDS011;10706;49.036;12.112;2023-05-07T13:43:00;4.22;;;2.13;;
21095;SDS011;10706;49.036;12.112;2023-05-07T13:45:29;3.97;;;1.90;;
21095;SDS011;10706;49.036;12.112;2023-05-07T13:47:56;6.30;;;2.50;;
21095;SDS011;10706;49.036;12.112;2023-05-07T13:50:22;4.30;;;1.92;;
21095;SDS011;10706;49.036;12.112;2023-05-07T13:52:48;5.32;;;2.20;;
21095;SDS011;10706;49.036;12.112;2023-05-07T13:55:17;5.68;;;2.20;;
21095;SDS011;10706;49.036;12.112;2023-05-07T13:57:44;7.43;;;2.20;;
21095;SDS011;10706;49.036;12.112;2023-05-07T14:00:11;8.88;;;2.30;;
21095;SDS011;10706;49.036;12.112;2023-05-07T14:02:41;5.55;;;2.03;;
21095;SDS011;10706;49.036;12.112;2023-05-07T14:05:07;5.90;;;2.28;;
21095;SDS011;10706;49.036;12.112;2023-05-07T14:07:38;5.05;;;2.55;;
21095;SDS011;10706;49.036;12.112;2023-05-07T14:10:04;5.45;;;2.05;;
21095;SDS011;10706;49.036;12.112;2023-05-07T14:12:31;5.78;;;2.58;;
21095;SDS011;10706;49.036;12.112;2023-05-07T14:14:58;4.10;;;2.13;;
21095;SDS011;10706;49.036;12.112;2023-05-07T14:17:24;5.05;;;2.28;;
21095;SDS011;10706;49.036;12.112;2023-05-07T14:19:51;6.20;;;2.53;;
21095;SDS011;10706;49.036;12.112;2023-05-07T14:22:19;5.03;;;2.30;;
21095;SDS011;10706;49.036;12.112;2023-05-07T14:24:47;5.35;;;2.50;;
21095;SDS011;10706;49.036;12.112;2023-05-07T14:27:14;6.00;;;2.53;;
21095;SDS011;10706;49.036;12.112;2023-05-07T14:29:40;5.78;;;2.38;;
21095;SDS011;10706;49.036;12.112;2023-05-07T14:32:07;6.18;;;2.50;;
21095;SDS011;10706;49.036;12.112;2023-05-07T14:34:33;7.20;;;2.53;;
21095;SDS011;10706;49.036;12.112;2023-05-07T14:36:59;6.53;;;2.58;;
21095;SDS011;10706;49.036;12.112;2023-05-07T14:39:26;8.85;;;2.33;;
21095;SDS011;10706;49.036;12.112;2023-05-07T14:41:52;5.80;;;2.40;;